VABB/BOM METAR and TAF weather

Enter ICAO airport designator
Station Type Date Time Source
VABB METAR 2020/01/17 14:00 UTC NOAA

VABB 171400Z 34008KT 2500 HZ NSC 21/14 Q1014 NOSIG


Station Type Date Time Source
VABB Decoded METAR 2020/01/17 14:00 UTC NOAA

Bombay / Santacruz, India (VABB) 19-07N 072-51E 14M
Jan 17, 2020 - 09:00 AM EST / 2020.01.17 1400 UTC
Wind: from the NNW (340 degrees) at 9 MPH (8 KT):0
Visibility: 1 mile(s):0
Weather: haze
Temperature: 69 F (21 C)
Dew Point: 57 F (14 C)
Relative Humidity: 64%
Pressure (altimeter): 29.94 in. Hg (1014 hPa)
ob: VABB 171400Z 34008KT 2500 HZ NSC 21/14 Q1014 NOSIG
cycle: 14

Station Type Date Time Source
VABB TAF 2020/01/17 12:06 UTC NOAA

TAF TAF VABB 171100Z 1712/1818 33009KT 3000 FU FEW100
BECMG 1717/1719 02006KT
BECMG 1800/1802 2000 HZ
BECMG 1804/1806 3000 FU
BECMG 1807/1809 29010KT 4000 FU
BECMG 1813/1815 34007KT 3000 FU

Example: see airport list